sensor_id;sensor_type;location;lat;lon;timestamp;P1;durP1;ratioP1;P2;durP2;ratioP2
3321;SDS011;1673;51.388;7.086;2022-10-20T00:01:32;20.77;;;10.50;;
3321;SDS011;1673;51.388;7.086;2022-10-20T00:04:02;19.48;;;9.80;;
3321;SDS011;1673;51.388;7.086;2022-10-20T00:06:32;17.52;;;11.05;;
3321;SDS011;1673;51.388;7.086;2022-10-20T00:09:02;18.95;;;10.10;;
3321;SDS011;1673;51.388;7.086;2022-10-20T00:11:35;20.33;;;10.90;;
3321;SDS011;1673;51.388;7.086;2022-10-20T00:14:05;18.45;;;10.38;;
3321;SDS011;1673;51.388;7.086;2022-10-20T00:16:36;24.25;;;10.55;;
3321;SDS011;1673;51.388;7.086;2022-10-20T00:19:06;19.75;;;10.70;;
3321;SDS011;1673;51.388;7.086;2022-10-20T00:21:36;18.80;;;10.88;;
3321;SDS011;1673;51.388;7.086;2022-10-20T00:24:05;22.88;;;10.52;;
3321;SDS011;1673;51.388;7.086;2022-10-20T00:26:37;18.87;;;10.63;;
3321;SDS011;1673;51.388;7.086;2022-10-20T00:29:08;22.53;;;11.30;;
3321;SDS011;1673;51.388;7.086;2022-10-20T00:31:38;21.38;;;11.40;;
3321;SDS011;1673;51.388;7.086;2022-10-20T00:34:07;19.00;;;11.60;;
3321;SDS011;1673;51.388;7.086;2022-10-20T00:36:37;20.45;;;11.23;;
3321;SDS011;1673;51.388;7.086;2022-10-20T00:39:07;21.38;;;11.32;;
3321;SDS011;1673;51.388;7.086;2022-10-20T00:41:39;19.50;;;11.50;;
3321;SDS011;1673;51.388;7.086;2022-10-20T00:47:09;19.10;;;10.60;;
3321;SDS011;1673;51.388;7.086;2022-10-20T00:49:40;20.08;;;10.98;;
3321;SDS011;1673;51.388;7.086;2022-10-20T00:52:10;20.13;;;10.10;;
3321;SDS011;1673;51.388;7.086;2022-10-20T00:54:40;19.10;;;10.70;;
3321;SDS011;1673;51.388;7.086;2022-10-20T00:57:12;20.50;;;10.90;;
3321;SDS011;1673;51.388;7.086;2022-10-20T00:59:42;20.50;;;11.10;;
3321;SDS011;1673;51.388;7.086;2022-10-20T01:02:12;18.85;;;10.80;;
3321;SDS011;1673;51.388;7.086;2022-10-20T01:04:42;23.08;;;10.70;;
3321;SDS011;1673;51.388;7.086;2022-10-20T01:07:12;19.25;;;10.52;;
3321;SDS011;1673;51.388;7.086;2022-10-20T01:09:42;17.40;;;10.10;;
3321;SDS011;1673;51.388;7.086;2022-10-20T01:12:17;17.00;;;10.32;;
3321;SDS011;1673;51.388;7.086;2022-10-20T01:14:55;16.60;;;9.93;;
3321;SDS011;1673;51.388;7.086;2022-10-20T01:17:30;19.40;;;10.43;;
3321;SDS011;1673;51.388;7.086;2022-10-20T01:20:15;18.05;;;10.70;;
3321;SDS011;1673;51.388;7.086;2022-10-20T01:25:51;23.30;;;12.40;;
3321;SDS011;1673;51.388;7.086;2022-10-20T01:28:29;20.50;;;12.13;;
3321;SDS011;1673;51.388;7.086;2022-10-20T01:31:04;24.50;;;12.50;;
3321;SDS011;1673;51.388;7.086;2022-10-20T01:33:41;20.50;;;11.60;;
3321;SDS011;1673;51.388;7.086;2022-10-20T01:36:13;21.25;;;11.98;;
3321;SDS011;1673;51.388;7.086;2022-10-20T01:38:49;19.95;;;11.00;;
3321;SDS011;1673;51.388;7.086;2022-10-20T01:41:22;22.73;;;11.85;;
3321;SDS011;1673;51.388;7.086;2022-10-20T01:44:01;17.48;;;10.38;;
3321;SDS011;1673;51.388;7.086;2022-10-20T01:46:33;27.63;;;12.50;;
3321;SDS011;1673;51.388;7.086;2022-10-20T01:49:03;21.50;;;11.57;;
3321;SDS011;1673;51.388;7.086;2022-10-20T01:51:33;22.03;;;12.17;;
3321;SDS011;1673;51.388;7.086;2022-10-20T01:54:03;26.02;;;12.13;;
3321;SDS011;1673;51.388;7.086;2022-10-20T01:56:34;25.73;;;12.85;;
3321;SDS011;1673;51.388;7.086;2022-10-20T01:59:17;27.98;;;13.30;;
3321;SDS011;1673;51.388;7.086;2022-10-20T02:02:01;22.15;;;12.75;;
3321;SDS011;1673;51.388;7.086;2022-10-20T02:04:40;21.50;;;12.25;;
3321;SDS011;1673;51.388;7.086;2022-10-20T02:07:22;23.50;;;12.00;;
3321;SDS011;1673;51.388;7.086;2022-10-20T02:09:54;23.10;;;12.00;;
3321;SDS011;1673;51.388;7.086;2022-10-20T02:12:28;25.30;;;13.05;;
3321;SDS011;1673;51.388;7.086;2022-10-20T02:15:06;28.65;;;13.80;;
3321;SDS011;1673;51.388;7.086;2022-10-20T02:17:38;23.47;;;12.00;;
3321;SDS011;1673;51.388;7.086;2022-10-20T02:20:08;28.65;;;13.55;;
3321;SDS011;1673;51.388;7.086;2022-10-20T02:22:39;26.13;;;13.70;;
3321;SDS011;1673;51.388;7.086;2022-10-20T02:25:09;27.65;;;13.18;;
3321;SDS011;1673;51.388;7.086;2022-10-20T02:27:40;26.58;;;14.07;;
3321;SDS011;1673;51.388;7.086;2022-10-20T02:30:15;23.83;;;12.90;;
3321;SDS011;1673;51.388;7.086;2022-10-20T02:32:46;29.70;;;13.63;;
3321;SDS011;1673;51.388;7.086;2022-10-20T02:35:19;20.88;;;12.70;;
3321;SDS011;1673;51.388;7.086;2022-10-20T02:37:50;21.35;;;11.90;;
3321;SDS011;1673;51.388;7.086;2022-10-20T02:40:20;28.50;;;12.80;;
3321;SDS011;1673;51.388;7.086;2022-10-20T02:42:50;25.08;;;12.85;;
3321;SDS011;1673;51.388;7.086;2022-10-20T02:45:22;23.80;;;12.50;;
3321;SDS011;1673;51.388;7.086;2022-10-20T02:47:51;24.88;;;13.85;;
3321;SDS011;1673;51.388;7.086;2022-10-20T02:50:21;25.45;;;14.07;;
3321;SDS011;1673;51.388;7.086;2022-10-20T02:52:50;22.80;;;13.07;;
3321;SDS011;1673;51.388;7.086;2022-10-20T02:55:20;25.27;;;14.50;;
3321;SDS011;1673;51.388;7.086;2022-10-20T02:57:50;25.42;;;14.93;;
3321;SDS011;1673;51.388;7.086;2022-10-20T03:00:22;26.75;;;14.95;;
3321;SDS011;1673;51.388;7.086;2022-10-20T03:02:54;27.65;;;15.43;;
3321;SDS011;1673;51.388;7.086;2022-10-20T03:05:24;26.67;;;15.30;;
3321;SDS011;1673;51.388;7.086;2022-10-20T03:07:55;30.50;;;16.60;;
3321;SDS011;1673;51.388;7.086;2022-10-20T03:10:24;26.98;;;14.63;;
3321;SDS011;1673;51.388;7.086;2022-10-20T03:12:54;23.05;;;13.55;;
3321;SDS011;1673;51.388;7.086;2022-10-20T03:15:26;27.25;;;13.63;;
3321;SDS011;1673;51.388;7.086;2022-10-20T03:17:55;33.30;;;15.20;;
3321;SDS011;1673;51.388;7.086;2022-10-20T03:20:25;30.88;;;15.27;;
3321;SDS011;1673;51.388;7.086;2022-10-20T03:22:55;26.30;;;15.52;;
3321;SDS011;1673;51.388;7.086;2022-10-20T03:25:24;28.50;;;16.00;;
3321;SDS011;1673;51.388;7.086;2022-10-20T03:27:54;30.63;;;16.17;;
3321;SDS011;1673;51.388;7.086;2022-10-20T03:30:26;29.33;;;14.98;;
3321;SDS011;1673;51.388;7.086;2022-10-20T03:32:56;29.08;;;14.57;;
3321;SDS011;1673;51.388;7.086;2022-10-20T03:35:25;31.02;;;14.85;;
3321;SDS011;1673;51.388;7.086;2022-10-20T03:37:55;26.55;;;15.00;;
3321;SDS011;1673;51.388;7.086;2022-10-20T03:40:24;28.25;;;16.02;;
3321;SDS011;1673;51.388;7.086;2022-10-20T03:42:54;27.15;;;15.70;;
3321;SDS011;1673;51.388;7.086;2022-10-20T03:45:26;26.90;;;15.07;;
3321;SDS011;1673;51.388;7.086;2022-10-20T03:47:56;29.90;;;15.73;;
3321;SDS011;1673;51.388;7.086;2022-10-20T03:50:25;27.75;;;15.80;;
3321;SDS011;1673;51.388;7.086;2022-10-20T03:52:55;32.30;;;16.33;;
3321;SDS011;1673;51.388;7.086;2022-10-20T03:55:24;32.40;;;16.10;;
3321;SDS011;1673;51.388;7.086;2022-10-20T03:57:54;37.30;;;17.88;;
3321;SDS011;1673;51.388;7.086;2022-10-20T04:00:26;26.08;;;15.68;;
3321;SDS011;1673;51.388;7.086;2022-10-20T04:02:56;36.70;;;18.92;;
3321;SDS011;1673;51.388;7.086;2022-10-20T04:05:26;33.42;;;18.95;;
3321;SDS011;1673;51.388;7.086;2022-10-20T04:07:55;33.53;;;17.48;;
3321;SDS011;1673;51.388;7.086;2022-10-20T04:10:25;33.15;;;16.20;;
3321;SDS011;1673;51.388;7.086;2022-10-20T04:12:56;40.53;;;18.38;;
3321;SDS011;1673;51.388;7.086;2022-10-20T04:15:28;32.85;;;16.90;;
3321;SDS011;1673;51.388;7.086;2022-10-20T04:17:58;35.20;;;17.27;;
3321;SDS011;1673;51.388;7.086;2022-10-20T04:20:27;34.25;;;17.58;;
3321;SDS011;1673;51.388;7.086;2022-10-20T04:22:57;39.13;;;20.45;;
3321;SDS011;1673;51.388;7.086;2022-10-20T04:25:26;50.40;;;21.17;;
3321;SDS011;1673;51.388;7.086;2022-10-20T04:27:57;41.10;;;20.67;;
3321;SDS011;1673;51.388;7.086;2022-10-20T04:30:29;48.17;;;20.10;;
3321;SDS011;1673;51.388;7.086;2022-10-20T04:32:59;47.80;;;24.20;;
3321;SDS011;1673;51.388;7.086;2022-10-20T04:35:29;45.85;;;22.10;;
3321;SDS011;1673;51.388;7.086;2022-10-20T04:37:58;42.90;;;21.88;;
3321;SDS011;1673;51.388;7.086;2022-10-20T04:40:28;40.60;;;21.60;;
3321;SDS011;1673;51.388;7.086;2022-10-20T04:42:57;51.17;;;23.70;;
3321;SDS011;1673;51.388;7.086;2022-10-20T04:45:30;44.65;;;22.63;;
3321;SDS011;1673;51.388;7.086;2022-10-20T04:48:00;38.90;;;21.50;;
3321;SDS011;1673;51.388;7.086;2022-10-20T04:50:29;40.40;;;20.92;;
3321;SDS011;1673;51.388;7.086;2022-10-20T04:53:07;42.47;;;20.10;;
3321;SDS011;1673;51.388;7.086;2022-10-20T04:55:37;39.58;;;21.83;;
3321;SDS011;1673;51.388;7.086;2022-10-20T04:58:07;36.80;;;20.20;;
3321;SDS011;1673;51.388;7.086;2022-10-20T05:00:39;35.65;;;18.52;;
3321;SDS011;1673;51.388;7.086;2022-10-20T05:03:09;34.78;;;18.40;;
3321;SDS011;1673;51.388;7.086;2022-10-20T05:05:38;36.35;;;20.27;;
3321;SDS011;1673;51.388;7.086;2022-10-20T05:08:08;29.20;;;17.25;;
3321;SDS011;1673;51.388;7.086;2022-10-20T05:10:37;30.65;;;17.25;;
3321;SDS011;1673;51.388;7.086;2022-10-20T05:13:07;35.73;;;18.80;;
3321;SDS011;1673;51.388;7.086;2022-10-20T05:15:39;30.50;;;16.83;;
3321;SDS011;1673;51.388;7.086;2022-10-20T05:18:09;27.88;;;16.17;;
3321;SDS011;1673;51.388;7.086;2022-10-20T05:20:39;25.90;;;15.52;;
3321;SDS011;1673;51.388;7.086;2022-10-20T05:23:28;25.73;;;14.95;;
3321;SDS011;1673;51.388;7.086;2022-10-20T05:26:00;27.87;;;15.73;;
3321;SDS011;1673;51.388;7.086;2022-10-20T05:28:30;28.13;;;14.80;;
3321;SDS011;1673;51.388;7.086;2022-10-20T05:31:04;22.58;;;13.88;;
3321;SDS011;1673;51.388;7.086;2022-10-20T05:33:34;21.52;;;13.85;;
3321;SDS011;1673;51.388;7.086;2022-10-20T05:36:08;25.00;;;14.32;;
3321;SDS011;1673;51.388;7.086;2022-10-20T05:38:41;35.07;;;13.90;;
3321;SDS011;1673;51.388;7.086;2022-10-20T05:41:11;26.30;;;14.35;;
3321;SDS011;1673;51.388;7.086;2022-10-20T05:43:46;24.92;;;14.02;;
3321;SDS011;1673;51.388;7.086;2022-10-20T05:46:19;22.00;;;13.50;;
3321;SDS011;1673;51.388;7.086;2022-10-20T05:48:50;21.53;;;12.80;;
3321;SDS011;1673;51.388;7.086;2022-10-20T05:51:21;25.50;;;15.50;;
3321;SDS011;1673;51.388;7.086;2022-10-20T05:53:53;21.77;;;12.63;;
3321;SDS011;1673;51.388;7.086;2022-10-20T05:56:23;18.98;;;11.80;;
3321;SDS011;1673;51.388;7.086;2022-10-20T05:58:54;22.40;;;12.70;;
3321;SDS011;1673;51.388;7.086;2022-10-20T06:01:27;19.58;;;11.40;;
3321;SDS011;1673;51.388;7.086;2022-10-20T06:04:05;25.73;;;12.90;;
3321;SDS011;1673;51.388;7.086;2022-10-20T06:06:35;31.70;;;16.95;;
3321;SDS011;1673;51.388;7.086;2022-10-20T06:09:06;19.67;;;12.00;;
3321;SDS011;1673;51.388;7.086;2022-10-20T06:11:36;21.20;;;10.80;;
3321;SDS011;1673;51.388;7.086;2022-10-20T06:14:06;23.77;;;11.67;;
3321;SDS011;1673;51.388;7.086;2022-10-20T06:16:38;22.40;;;12.00;;
3321;SDS011;1673;51.388;7.086;2022-10-20T06:19:08;21.03;;;12.33;;
3321;SDS011;1673;51.388;7.086;2022-10-20T06:21:38;30.90;;;17.80;;
3321;SDS011;1673;51.388;7.086;2022-10-20T06:24:28;21.23;;;12.32;;
3321;SDS011;1673;51.388;7.086;2022-10-20T06:26:58;20.35;;;11.70;;
3321;SDS011;1673;51.388;7.086;2022-10-20T06:29:27;22.90;;;11.90;;
3321;SDS011;1673;51.388;7.086;2022-10-20T06:31:59;19.45;;;11.15;;
3321;SDS011;1673;51.388;7.086;2022-10-20T06:34:29;17.85;;;10.90;;
3321;SDS011;1673;51.388;7.086;2022-10-20T06:36:59;21.15;;;12.85;;
3321;SDS011;1673;51.388;7.086;2022-10-20T06:39:29;20.48;;;11.88;;
3321;SDS011;1673;51.388;7.086;2022-10-20T06:41:58;18.70;;;11.68;;
3321;SDS011;1673;51.388;7.086;2022-10-20T06:44:43;17.95;;;10.73;;
3321;SDS011;1673;51.388;7.086;2022-10-20T06:47:15;19.15;;;11.43;;
3321;SDS011;1673;51.388;7.086;2022-10-20T06:49:46;19.02;;;10.75;;
3321;SDS011;1673;51.388;7.086;2022-10-20T06:52:16;18.67;;;11.45;;
3321;SDS011;1673;51.388;7.086;2022-10-20T06:54:46;22.27;;;11.40;;
3321;SDS011;1673;51.388;7.086;2022-10-20T06:57:15;19.13;;;11.00;;
3321;SDS011;1673;51.388;7.086;2022-10-20T06:59:46;15.70;;;10.27;;
3321;SDS011;1673;51.388;7.086;2022-10-20T07:02:18;19.73;;;11.07;;
3321;SDS011;1673;51.388;7.086;2022-10-20T07:04:48;22.17;;;10.60;;
3321;SDS011;1673;51.388;7.086;2022-10-20T07:07:18;17.80;;;11.00;;
3321;SDS011;1673;51.388;7.086;2022-10-20T07:09:47;18.15;;;10.38;;
3321;SDS011;1673;51.388;7.086;2022-10-20T07:12:17;19.55;;;11.02;;
3321;SDS011;1673;51.388;7.086;2022-10-20T07:14:46;17.88;;;10.95;;
3321;SDS011;1673;51.388;7.086;2022-10-20T07:17:19;16.10;;;10.77;;
3321;SDS011;1673;51.388;7.086;2022-10-20T07:19:48;18.33;;;10.90;;
3321;SDS011;1673;51.388;7.086;2022-10-20T07:22:18;20.55;;;11.23;;
3321;SDS011;1673;51.388;7.086;2022-10-20T07:24:48;18.35;;;11.23;;
3321;SDS011;1673;51.388;7.086;2022-10-20T07:27:18;21.17;;;10.93;;
3321;SDS011;1673;51.388;7.086;2022-10-20T07:29:48;17.67;;;9.97;;
3321;SDS011;1673;51.388;7.086;2022-10-20T07:32:20;16.95;;;10.15;;
3321;SDS011;1673;51.388;7.086;2022-10-20T07:34:49;18.20;;;11.07;;
3321;SDS011;1673;51.388;7.086;2022-10-20T07:37:19;17.75;;;11.05;;
3321;SDS011;1673;51.388;7.086;2022-10-20T07:39:49;15.85;;;10.25;;
3321;SDS011;1673;51.388;7.086;2022-10-20T07:42:18;16.73;;;10.30;;
3321;SDS011;1673;51.388;7.086;2022-10-20T07:44:48;20.05;;;9.73;;
3321;SDS011;1673;51.388;7.086;2022-10-20T07:47:20;17.93;;;9.97;;
3321;SDS011;1673;51.388;7.086;2022-10-20T07:49:50;18.77;;;9.90;;
3321;SDS011;1673;51.388;7.086;2022-10-20T07:52:19;15.38;;;9.43;;
3321;SDS011;1673;51.388;7.086;2022-10-20T07:54:49;17.20;;;9.60;;
3321;SDS011;1673;51.388;7.086;2022-10-20T07:57:38;18.98;;;10.00;;
3321;SDS011;1673;51.388;7.086;2022-10-20T08:00:09;15.93;;;9.10;;
3321;SDS011;1673;51.388;7.086;2022-10-20T08:02:42;16.50;;;10.20;;
3321;SDS011;1673;51.388;7.086;2022-10-20T08:05:12;17.40;;;9.98;;
3321;SDS011;1673;51.388;7.086;2022-10-20T08:07:41;14.65;;;9.27;;
3321;SDS011;1673;51.388;7.086;2022-10-20T08:10:11;16.80;;;8.97;;
3321;SDS011;1673;51.388;7.086;2022-10-20T08:12:40;13.35;;;8.60;;
3321;SDS011;1673;51.388;7.086;2022-10-20T08:15:10;16.00;;;8.43;;
3321;SDS011;1673;51.388;7.086;2022-10-20T08:17:42;14.63;;;9.10;;
3321;SDS011;1673;51.388;7.086;2022-10-20T08:20:12;14.73;;;9.63;;
3321;SDS011;1673;51.388;7.086;2022-10-20T08:22:52;18.55;;;9.60;;
3321;SDS011;1673;51.388;7.086;2022-10-20T08:25:22;17.05;;;8.98;;
3321;SDS011;1673;51.388;7.086;2022-10-20T08:27:51;13.85;;;8.73;;
3321;SDS011;1673;51.388;7.086;2022-10-20T08:30:21;15.20;;;8.20;;
3321;SDS011;1673;51.388;7.086;2022-10-20T08:32:53;18.83;;;9.68;;
3321;SDS011;1673;51.388;7.086;2022-10-20T08:35:23;17.05;;;8.73;;
3321;SDS011;1673;51.388;7.086;2022-10-20T08:37:53;15.20;;;8.57;;
3321;SDS011;1673;51.388;7.086;2022-10-20T08:40:24;18.30;;;10.02;;
3321;SDS011;1673;51.388;7.086;2022-10-20T08:42:55;16.92;;;8.15;;
3321;SDS011;1673;51.388;7.086;2022-10-20T08:45:25;14.18;;;9.02;;
3321;SDS011;1673;51.388;7.086;2022-10-20T08:48:05;14.90;;;8.77;;
3321;SDS011;1673;51.388;7.086;2022-10-20T08:50:38;19.33;;;8.50;;
3321;SDS011;1673;51.388;7.086;2022-10-20T08:53:10;13.80;;;8.57;;
3321;SDS011;1673;51.388;7.086;2022-10-20T08:55:41;13.75;;;8.35;;
3321;SDS011;1673;51.388;7.086;2022-10-20T08:58:12;14.05;;;8.05;;
3321;SDS011;1673;51.388;7.086;2022-10-20T09:00:43;16.98;;;8.23;;
3321;SDS011;1673;51.388;7.086;2022-10-20T09:03:17;13.73;;;8.70;;
3321;SDS011;1673;51.388;7.086;2022-10-20T09:05:49;12.13;;;8.17;;
3321;SDS011;1673;51.388;7.086;2022-10-20T09:08:22;15.85;;;8.57;;
3321;SDS011;1673;51.388;7.086;2022-10-20T09:10:54;17.40;;;9.18;;
3321;SDS011;1673;51.388;7.086;2022-10-20T09:13:25;14.35;;;8.27;;
3321;SDS011;1673;51.388;7.086;2022-10-20T09:15:56;17.53;;;8.50;;
3321;SDS011;1673;51.388;7.086;2022-10-20T09:18:31;13.60;;;8.80;;
3321;SDS011;1673;51.388;7.086;2022-10-20T09:21:02;13.65;;;7.90;;
3321;SDS011;1673;51.388;7.086;2022-10-20T09:23:36;12.40;;;8.38;;
3321;SDS011;1673;51.388;7.086;2022-10-20T09:26:12;20.05;;;8.43;;
3321;SDS011;1673;51.388;7.086;2022-10-20T09:29:03;12.40;;;8.40;;
3321;SDS011;1673;51.388;7.086;2022-10-20T09:31:39;14.60;;;8.50;;
3321;SDS011;1673;51.388;7.086;2022-10-20T09:34:23;16.60;;;9.40;;
3321;SDS011;1673;51.388;7.086;2022-10-20T09:36:55;14.45;;;7.80;;
3321;SDS011;1673;51.388;7.086;2022-10-20T09:39:27;11.93;;;8.10;;
3321;SDS011;1673;51.388;7.086;2022-10-20T09:42:00;16.30;;;8.50;;
3321;SDS011;1673;51.388;7.086;2022-10-20T09:44:32;16.15;;;8.95;;
3321;SDS011;1673;51.388;7.086;2022-10-20T09:47:05;17.77;;;8.60;;
3321;SDS011;1673;51.388;7.086;2022-10-20T09:49:43;13.10;;;7.82;;
3321;SDS011;1673;51.388;7.086;2022-10-20T09:52:15;12.85;;;8.40;;
3321;SDS011;1673;51.388;7.086;2022-10-20T09:54:47;18.92;;;8.55;;
3321;SDS011;1673;51.388;7.086;2022-10-20T09:57:18;16.55;;;8.50;;
3321;SDS011;1673;51.388;7.086;2022-10-20T09:59:49;16.77;;;8.65;;
3321;SDS011;1673;51.388;7.086;2022-10-20T10:02:27;17.10;;;8.57;;
3321;SDS011;1673;51.388;7.086;2022-10-20T10:07:57;17.35;;;9.98;;
3321;SDS011;1673;51.388;7.086;2022-10-20T10:10:28;15.95;;;9.27;;
3321;SDS011;1673;51.388;7.086;2022-10-20T10:12:59;18.50;;;8.70;;
3321;SDS011;1673;51.388;7.086;2022-10-20T10:15:32;21.73;;;8.70;;
3321;SDS011;1673;51.388;7.086;2022-10-20T10:18:10;16.17;;;8.80;;
3321;SDS011;1673;51.388;7.086;2022-10-20T10:20:43;14.77;;;7.93;;
3321;SDS011;1673;51.388;7.086;2022-10-20T10:23:17;18.38;;;9.27;;
3321;SDS011;1673;51.388;7.086;2022-10-20T10:25:48;12.65;;;8.30;;
3321;SDS011;1673;51.388;7.086;2022-10-20T10:28:26;14.52;;;7.80;;
3321;SDS011;1673;51.388;7.086;2022-10-20T10:33:54;14.40;;;8.73;;
3321;SDS011;1673;51.388;7.086;2022-10-20T10:36:32;15.10;;;8.75;;
3321;SDS011;1673;51.388;7.086;2022-10-20T10:39:04;18.67;;;8.88;;
3321;SDS011;1673;51.388;7.086;2022-10-20T10:41:41;14.40;;;8.80;;
3321;SDS011;1673;51.388;7.086;2022-10-20T10:44:28;15.15;;;9.05;;
3321;SDS011;1673;51.388;7.086;2022-10-20T10:47:06;16.55;;;9.25;;
3321;SDS011;1673;51.388;7.086;2022-10-20T10:49:44;15.30;;;9.00;;
3321;SDS011;1673;51.388;7.086;2022-10-20T10:52:28;16.02;;;9.32;;
3321;SDS011;1673;51.388;7.086;2022-10-20T10:55:05;16.35;;;8.90;;
3321;SDS011;1673;51.388;7.086;2022-10-20T10:58:05;19.13;;;8.70;;
3321;SDS011;1673;51.388;7.086;2022-10-20T11:01:01;17.05;;;8.80;;
3321;SDS011;1673;51.388;7.086;2022-10-20T11:06:29;13.95;;;8.63;;
3321;SDS011;1673;51.388;7.086;2022-10-20T11:09:08;14.95;;;8.50;;
3321;SDS011;1673;51.388;7.086;2022-10-20T11:11:46;15.63;;;9.07;;
3321;SDS011;1673;51.388;7.086;2022-10-20T11:14:39;17.65;;;8.90;;
3321;SDS011;1673;51.388;7.086;2022-10-20T11:17:15;17.00;;;9.30;;
3321;SDS011;1673;51.388;7.086;2022-10-20T11:19:58;17.70;;;9.00;;
3321;SDS011;1673;51.388;7.086;2022-10-20T11:22:42;18.30;;;9.25;;
3321;SDS011;1673;51.388;7.086;2022-10-20T11:25:23;28.83;;;9.73;;
3321;SDS011;1673;51.388;7.086;2022-10-20T11:27:58;18.13;;;10.10;;
3321;SDS011;1673;51.388;7.086;2022-10-20T11:30:29;15.00;;;9.27;;
3321;SDS011;1673;51.388;7.086;2022-10-20T11:33:03;22.40;;;10.30;;
3321;SDS011;1673;51.388;7.086;2022-10-20T11:35:37;20.00;;;10.10;;
3321;SDS011;1673;51.388;7.086;2022-10-20T11:38:13;16.95;;;10.02;;
3321;SDS011;1673;51.388;7.086;2022-10-20T11:40:51;17.55;;;9.63;;
3321;SDS011;1673;51.388;7.086;2022-10-20T11:43:31;19.10;;;9.85;;
3321;SDS011;1673;51.388;7.086;2022-10-20T11:46:06;15.43;;;10.35;;
3321;SDS011;1673;51.388;7.086;2022-10-20T11:48:39;15.10;;;9.50;;
3321;SDS011;1673;51.388;7.086;2022-10-20T11:51:17;15.20;;;9.30;;
3321;SDS011;1673;51.388;7.086;2022-10-20T11:54:29;17.85;;;11.13;;
3321;SDS011;1673;51.388;7.086;2022-10-20T11:57:19;17.80;;;10.25;;
3321;SDS011;1673;51.388;7.086;2022-10-20T12:00:01;17.25;;;9.95;;
3321;SDS011;1673;51.388;7.086;2022-10-20T12:06:04;15.02;;;10.48;;
3321;SDS011;1673;51.388;7.086;2022-10-20T12:08:49;22.27;;;11.70;;
3321;SDS011;1673;51.388;7.086;2022-10-20T12:11:45;20.73;;;11.90;;
3321;SDS011;1673;51.388;7.086;2022-10-20T12:14:21;25.08;;;12.43;;
3321;SDS011;1673;51.388;7.086;2022-10-20T12:17:01;23.55;;;12.57;;
3321;SDS011;1673;51.388;7.086;2022-10-20T12:19:34;20.45;;;12.18;;
3321;SDS011;1673;51.388;7.086;2022-10-20T12:22:05;22.93;;;12.93;;
3321;SDS011;1673;51.388;7.086;2022-10-20T12:25:23;18.67;;;12.60;;
3321;SDS011;1673;51.388;7.086;2022-10-20T12:31:23;22.55;;;13.65;;
3321;SDS011;1673;51.388;7.086;2022-10-20T12:33:59;23.27;;;13.65;;
3321;SDS011;1673;51.388;7.086;2022-10-20T12:36:33;29.13;;;13.70;;
3321;SDS011;1673;51.388;7.086;2022-10-20T12:39:16;26.55;;;13.90;;
3321;SDS011;1673;51.388;7.086;2022-10-20T12:41:54;24.50;;;14.20;;
3321;SDS011;1673;51.388;7.086;2022-10-20T12:44:28;24.33;;;14.23;;
3321;SDS011;1673;51.388;7.086;2022-10-20T12:47:02;23.35;;;13.90;;
3321;SDS011;1673;51.388;7.086;2022-10-20T12:49:33;22.85;;;12.77;;
3321;SDS011;1673;51.388;7.086;2022-10-20T12:52:04;21.15;;;13.40;;
3321;SDS011;1673;51.388;7.086;2022-10-20T12:54:38;26.15;;;14.45;;
3321;SDS011;1673;51.388;7.086;2022-10-20T12:57:24;23.20;;;14.20;;
3321;SDS011;1673;51.388;7.086;2022-10-20T12:59:55;21.52;;;14.00;;
3321;SDS011;1673;51.388;7.086;2022-10-20T13:02:29;21.27;;;13.70;;
3321;SDS011;1673;51.388;7.086;2022-10-20T13:05:00;27.67;;;14.25;;
3321;SDS011;1673;51.388;7.086;2022-10-20T13:10:34;25.95;;;15.20;;
3321;SDS011;1673;51.388;7.086;2022-10-20T13:16:07;24.30;;;15.23;;
3321;SDS011;1673;51.388;7.086;2022-10-20T13:18:43;29.45;;;16.55;;
3321;SDS011;1673;51.388;7.086;2022-10-20T13:21:24;21.90;;;13.85;;
3321;SDS011;1673;51.388;7.086;2022-10-20T13:23:59;25.23;;;14.43;;
3321;SDS011;1673;51.388;7.086;2022-10-20T13:26:35;20.53;;;14.13;;
3321;SDS011;1673;51.388;7.086;2022-10-20T13:29:10;24.05;;;14.50;;
3321;SDS011;1673;51.388;7.086;2022-10-20T13:31:43;28.27;;;14.40;;
3321;SDS011;1673;51.388;7.086;2022-10-20T13:34:17;21.63;;;14.00;;
3321;SDS011;1673;51.388;7.086;2022-10-20T13:36:53;26.88;;;14.38;;
3321;SDS011;1673;51.388;7.086;2022-10-20T13:39:33;22.80;;;14.20;;
3321;SDS011;1673;51.388;7.086;2022-10-20T13:42:11;24.50;;;15.10;;
3321;SDS011;1673;51.388;7.086;2022-10-20T13:44:51;23.30;;;14.43;;
3321;SDS011;1673;51.388;7.086;2022-10-20T13:47:29;24.75;;;14.15;;
3321;SDS011;1673;51.388;7.086;2022-10-20T13:50:08;22.35;;;13.50;;
3321;SDS011;1673;51.388;7.086;2022-10-20T13:52:40;21.77;;;14.40;;
3321;SDS011;1673;51.388;7.086;2022-10-20T13:55:14;23.52;;;13.70;;
3321;SDS011;1673;51.388;7.086;2022-10-20T13:57:49;23.83;;;13.63;;
3321;SDS011;1673;51.388;7.086;2022-10-20T14:00:22;21.80;;;14.43;;
3321;SDS011;1673;51.388;7.086;2022-10-20T14:02:59;20.57;;;13.10;;
3321;SDS011;1673;51.388;7.086;2022-10-20T14:05:35;26.60;;;14.07;;
3321;SDS011;1673;51.388;7.086;2022-10-20T14:08:07;23.55;;;13.05;;
3321;SDS011;1673;51.388;7.086;2022-10-20T14:10:42;22.17;;;13.00;;
3321;SDS011;1673;51.388;7.086;2022-10-20T14:13:19;23.38;;;13.02;;
3321;SDS011;1673;51.388;7.086;2022-10-20T14:15:51;23.23;;;12.80;;
3321;SDS011;1673;51.388;7.086;2022-10-20T14:18:23;20.85;;;11.85;;
3321;SDS011;1673;51.388;7.086;2022-10-20T14:20:55;22.77;;;13.10;;
3321;SDS011;1673;51.388;7.086;2022-10-20T14:23:33;20.90;;;12.70;;
3321;SDS011;1673;51.388;7.086;2022-10-20T14:26:05;19.25;;;11.50;;
3321;SDS011;1673;51.388;7.086;2022-10-20T14:28:41;21.30;;;12.00;;
3321;SDS011;1673;51.388;7.086;2022-10-20T14:31:12;21.00;;;12.10;;
3321;SDS011;1673;51.388;7.086;2022-10-20T14:33:44;19.20;;;11.75;;
3321;SDS011;1673;51.388;7.086;2022-10-20T14:36:16;22.07;;;12.47;;
3321;SDS011;1673;51.388;7.086;2022-10-20T14:38:49;21.40;;;12.63;;
3321;SDS011;1673;51.388;7.086;2022-10-20T14:41:23;16.55;;;11.25;;
3321;SDS011;1673;51.388;7.086;2022-10-20T14:43:57;17.67;;;11.02;;
3321;SDS011;1673;51.388;7.086;2022-10-20T14:46:34;20.40;;;12.10;;
3321;SDS011;1673;51.388;7.086;2022-10-20T14:49:10;15.85;;;11.00;;
3321;SDS011;1673;51.388;7.086;2022-10-20T14:51:44;18.92;;;11.63;;
3321;SDS011;1673;51.388;7.086;2022-10-20T14:54:26;21.55;;;11.40;;
3321;SDS011;1673;51.388;7.086;2022-10-20T14:59:59;20.80;;;11.68;;
3321;SDS011;1673;51.388;7.086;2022-10-20T15:02:31;19.10;;;11.93;;
3321;SDS011;1673;51.388;7.086;2022-10-20T15:07:49;24.08;;;11.82;;
3321;SDS011;1673;51.388;7.086;2022-10-20T15:10:20;21.50;;;10.75;;
3321;SDS011;1673;51.388;7.086;2022-10-20T15:12:51;18.13;;;9.85;;
3321;SDS011;1673;51.388;7.086;2022-10-20T15:15:25;20.13;;;10.50;;
3321;SDS011;1673;51.388;7.086;2022-10-20T15:18:08;17.75;;;12.25;;
3321;SDS011;1673;51.388;7.086;2022-10-20T15:20:39;18.13;;;10.80;;
3321;SDS011;1673;51.388;7.086;2022-10-20T15:23:10;16.55;;;10.60;;
3321;SDS011;1673;51.388;7.086;2022-10-20T15:25:46;18.02;;;11.05;;
3321;SDS011;1673;51.388;7.086;2022-10-20T15:28:24;18.55;;;11.23;;
3321;SDS011;1673;51.388;7.086;2022-10-20T15:31:04;15.98;;;10.90;;
3321;SDS011;1673;51.388;7.086;2022-10-20T15:33:36;17.53;;;10.97;;
3321;SDS011;1673;51.388;7.086;2022-10-20T15:36:09;17.92;;;10.65;;
3321;SDS011;1673;51.388;7.086;2022-10-20T15:38:45;24.17;;;11.23;;
3321;SDS011;1673;51.388;7.086;2022-10-20T15:41:20;21.10;;;12.00;;
3321;SDS011;1673;51.388;7.086;2022-10-20T15:43:52;22.92;;;11.45;;
3321;SDS011;1673;51.388;7.086;2022-10-20T15:46:26;20.23;;;11.23;;
3321;SDS011;1673;51.388;7.086;2022-10-20T15:49:02;18.20;;;11.50;;
3321;SDS011;1673;51.388;7.086;2022-10-20T15:51:37;19.52;;;10.80;;
3321;SDS011;1673;51.388;7.086;2022-10-20T15:54:10;19.75;;;11.93;;
3321;SDS011;1673;51.388;7.086;2022-10-20T15:56:45;18.60;;;11.27;;
3321;SDS011;1673;51.388;7.086;2022-10-20T15:59:19;18.58;;;11.10;;
3321;SDS011;1673;51.388;7.086;2022-10-20T16:01:52;19.65;;;11.25;;